createdAt,value
2022-12-23T00:01:03.215Z,6.80
2022-12-23T00:06:17.157Z,6.82
2022-12-23T00:11:21.292Z,6.85
2022-12-23T00:16:24.995Z,6.90
2022-12-23T00:21:28.839Z,6.92
2022-12-23T00:26:32.557Z,6.94
2022-12-23T00:31:37.055Z,6.94
2022-12-23T00:36:41.879Z,6.94
2022-12-23T00:42:05.182Z,6.91
2022-12-23T00:47:29.019Z,6.92
2022-12-23T00:52:33.355Z,6.94
2022-12-23T00:57:37.093Z,6.96
2022-12-23T01:02:59.360Z,6.97
2022-12-23T01:08:12.522Z,6.95
2022-12-23T01:13:16.829Z,6.88
2022-12-23T01:18:20.415Z,6.83
2022-12-23T01:23:24.238Z,6.84
2022-12-23T01:28:30.280Z,6.86
2022-12-23T01:33:34.596Z,6.86
2022-12-23T01:38:38.511Z,6.86
2022-12-23T01:43:46.845Z,6.87
2022-12-23T01:48:53.932Z,6.91
2022-12-23T01:54:02.264Z,6.85
2022-12-23T01:59:37.187Z,6.79
2022-12-23T02:04:41.368Z,6.77
2022-12-23T02:09:45.507Z,6.74
2022-12-23T02:15:29.256Z,6.71
2022-12-23T02:21:03.818Z,6.66
2022-12-23T02:26:38.329Z,6.57
2022-12-23T02:31:58.688Z,6.51
2022-12-23T02:37:17.551Z,6.57
2022-12-23T02:42:36.517Z,6.47
2022-12-23T02:47:52.119Z,6.30
2022-12-23T02:53:01.074Z,6.25
2022-12-23T02:58:13.844Z,6.26
2022-12-23T03:03:17.943Z,6.31
2022-12-23T03:08:32.418Z,6.32
2022-12-23T03:14:05.413Z,6.31
2022-12-23T03:19:24.386Z,6.31
2022-12-23T03:24:49.413Z,6.25
2022-12-23T03:30:20.063Z,6.19
2022-12-23T03:35:36.979Z,6.02
2022-12-23T03:46:57.376Z,6.04
2022-12-23T03:52:21.213Z,6.03
2022-12-23T03:57:40.063Z,6.05
2022-12-23T04:03:00.745Z,6.03
2022-12-23T04:08:21.774Z,5.97
2022-12-23T04:13:28.859Z,5.98
2022-12-23T04:18:33.361Z,5.92
2022-12-23T04:23:37.081Z,5.92
2022-12-23T04:28:40.875Z,5.94
2022-12-23T04:33:44.649Z,6.03
2022-12-23T04:38:48.630Z,6.06
2022-12-23T04:43:53.448Z,6.06
2022-12-23T04:48:57.714Z,6.07
2022-12-23T04:54:01.830Z,6.10
2022-12-23T04:59:05.495Z,6.06
2022-12-23T05:04:13.551Z,6.04
2022-12-23T05:09:17.622Z,6.00
2022-12-23T05:14:21.441Z,6.03
2022-12-23T05:19:26.808Z,5.92
2022-12-23T05:24:30.611Z,5.79
2022-12-23T05:29:34.437Z,5.76
2022-12-23T05:34:38.389Z,5.77
2022-12-23T05:39:42.328Z,5.82
2022-12-23T05:44:46.827Z,5.84
2022-12-23T05:49:51.394Z,5.82
2022-12-23T05:54:56.746Z,5.77
2022-12-23T06:00:00.584Z,5.77
2022-12-23T06:05:05.364Z,5.78
2022-12-23T06:10:11.954Z,5.78
2022-12-23T06:15:16.782Z,5.80
2022-12-23T06:20:21.223Z,5.80
2022-12-23T06:25:25.555Z,5.76
2022-12-23T06:30:29.675Z,5.73
2022-12-23T06:35:33.620Z,5.75
2022-12-23T06:40:37.520Z,5.77
2022-12-23T06:45:46.333Z,5.77
2022-12-23T06:50:50.198Z,5.75
2022-12-23T06:56:02.684Z,5.74
2022-12-23T07:01:07.032Z,5.76
2022-12-23T07:06:11.097Z,5.75
2022-12-23T07:11:14.936Z,5.76
2022-12-23T07:16:18.891Z,5.77
2022-12-23T07:21:28.853Z,5.78
2022-12-23T07:26:33.861Z,5.71
2022-12-23T07:31:40.937Z,5.71
2022-12-23T07:36:45.296Z,5.73
2022-12-23T07:41:55.509Z,5.75
2022-12-23T07:47:07.793Z,5.75
2022-12-23T07:52:11.822Z,5.77
2022-12-23T07:57:16.256Z,5.72
2022-12-23T08:02:25.722Z,5.71
2022-12-23T08:07:29.981Z,5.70
2022-12-23T08:12:34.809Z,5.63
2022-12-23T08:17:38.941Z,5.65
2022-12-23T08:22:43.187Z,5.73
2022-12-23T08:27:47.389Z,5.76
2022-12-23T08:32:51.952Z,5.76
2022-12-23T08:37:55.980Z,5.73
2022-12-23T08:43:00.005Z,5.66
2022-12-23T08:48:05.276Z,5.62
2022-12-23T08:53:09.758Z,5.59
2022-12-23T08:58:15.502Z,5.54
2022-12-23T09:03:19.507Z,5.46
2022-12-23T09:08:24.649Z,5.52
2022-12-23T09:13:35.259Z,5.56
2022-12-23T09:18:40.109Z,5.65
2022-12-23T09:23:44.551Z,5.67
2022-12-23T09:28:49.301Z,5.65
2022-12-23T09:33:54.664Z,5.69
2022-12-23T09:38:59.459Z,5.73
2022-12-23T09:44:15.413Z,5.75
2022-12-23T09:49:24.252Z,5.70
2022-12-23T09:54:41.779Z,5.72
2022-12-23T10:00:20.611Z,5.66
2022-12-23T10:06:03.248Z,5.69
2022-12-23T10:11:22.453Z,5.71
2022-12-23T10:16:43.290Z,5.71
2022-12-23T10:21:54.583Z,5.65
2022-12-23T10:27:07.019Z,5.69
2022-12-23T10:33:03.055Z,5.72
2022-12-23T10:38:30.342Z,5.70
2022-12-23T10:43:53.821Z,5.69
2022-12-23T10:49:52.324Z,5.71
2022-12-23T10:54:56.380Z,5.74
2022-12-23T11:00:00.388Z,5.72
2022-12-23T11:05:09.448Z,5.78
2022-12-23T11:10:29.136Z,5.85
2022-12-23T11:15:40.067Z,5.89
2022-12-23T11:21:01.770Z,5.92
2022-12-23T11:26:18.196Z,5.92
2022-12-23T11:31:36.634Z,5.95
2022-12-23T11:36:42.329Z,6.01
2022-12-23T11:41:51.054Z,6.12
2022-12-23T11:46:56.105Z,6.24
2022-12-23T11:52:12.859Z,6.39
2022-12-23T11:57:26.380Z,6.37
2022-12-23T12:02:45.298Z,6.37
2022-12-23T12:07:51.908Z,6.36
2022-12-23T12:13:09.503Z,6.41
2022-12-23T12:18:19.650Z,6.46
2022-12-23T12:23:35.892Z,6.46
2022-12-23T12:28:44.714Z,6.53
2022-12-23T12:33:55.540Z,6.63
2022-12-23T12:39:00.968Z,6.64
2022-12-23T12:44:17.029Z,6.63
2022-12-23T12:49:33.711Z,6.66
2022-12-23T12:54:52.825Z,6.61
2022-12-23T13:00:05.631Z,6.60
2022-12-23T13:05:38.878Z,6.58
2022-12-23T13:10:57.860Z,6.63
2022-12-23T13:16:42.189Z,6.61
2022-12-23T13:22:28.788Z,6.63
2022-12-23T13:27:44.879Z,6.55
2022-12-23T13:33:20.517Z,6.55
2022-12-23T13:39:00.835Z,6.43
2022-12-23T13:44:09.950Z,6.46
2022-12-23T13:49:24.245Z,6.55
2022-12-23T13:54:56.133Z,6.61
2022-12-23T14:00:34.309Z,6.56
2022-12-23T14:05:53.593Z,6.48
2022-12-23T14:11:12.203Z,6.54
2022-12-23T14:16:33.160Z,6.39
2022-12-23T14:22:15.744Z,6.32
2022-12-23T14:28:09.272Z,6.30
2022-12-23T14:33:19.245Z,6.40
2022-12-23T14:38:31.916Z,6.37
2022-12-23T14:43:56.725Z,6.40
2022-12-23T14:49:36.921Z,6.41
2022-12-23T14:54:46.482Z,6.49
2022-12-23T15:00:06.789Z,6.51
2022-12-23T15:05:11.522Z,6.55
2022-12-23T15:10:23.709Z,6.54
2022-12-23T15:15:35.218Z,6.56
2022-12-23T15:20:41.634Z,6.62
2022-12-23T15:25:51.589Z,6.62
2022-12-23T15:30:57.527Z,6.58
2022-12-23T15:36:06.039Z,6.56
2022-12-23T15:41:19.118Z,6.57
2022-12-23T15:46:30.173Z,6.57
2022-12-23T15:52:12.462Z,6.58
2022-12-23T15:57:22.304Z,6.55
2022-12-23T16:03:00.341Z,6.47
2022-12-23T16:08:28.506Z,6.48
2022-12-23T16:13:34.323Z,6.49
2022-12-23T16:18:47.273Z,6.53
2022-12-23T16:23:53.353Z,6.51
2022-12-23T16:29:01.556Z,6.45
2022-12-23T16:34:08.333Z,6.37
2022-12-23T16:39:22.720Z,6.39
2022-12-23T16:44:26.734Z,6.49
2022-12-23T16:49:34.087Z,6.50
2022-12-23T16:54:38.379Z,6.41
2022-12-23T16:59:41.991Z,6.37
2022-12-23T17:04:45.610Z,6.28
2022-12-23T17:09:49.384Z,6.29
2022-12-23T17:14:53.266Z,6.25
2022-12-23T17:19:58.112Z,6.21
2022-12-23T17:25:02.141Z,6.22
2022-12-23T17:30:11.062Z,6.18
2022-12-23T17:35:15.625Z,6.14
2022-12-23T17:40:20.319Z,6.13
2022-12-23T17:45:28.203Z,6.04
2022-12-23T17:50:35.435Z,6.04
2022-12-23T17:55:40.775Z,6.09
2022-12-23T18:00:48.519Z,6.05
2022-12-23T18:06:01.585Z,6.01
2022-12-23T18:11:17.512Z,5.97
2022-12-23T18:16:24.222Z,5.98
2022-12-23T18:21:31.296Z,6.04
2022-12-23T18:26:36.643Z,6.04
2022-12-23T18:31:51.396Z,6.05
2022-12-23T18:36:56.602Z,6.05
2022-12-23T18:42:00.997Z,6.00
2022-12-23T18:47:05.872Z,6.04
2022-12-23T18:52:15.567Z,6.04
2022-12-23T18:57:20.650Z,6.05
2022-12-23T19:02:26.908Z,5.99
2022-12-23T19:07:33.700Z,6.00
2022-12-23T19:12:39.454Z,6.04
2022-12-23T19:17:44.328Z,6.10
2022-12-23T19:22:49.840Z,6.15
2022-12-23T19:27:53.613Z,6.16
2022-12-23T19:32:57.773Z,6.09
2022-12-23T19:38:02.196Z,6.02
2022-12-23T19:43:06.606Z,6.00
2022-12-23T19:48:13.528Z,6.03
2022-12-23T19:53:18.279Z,6.05
2022-12-23T19:58:36.561Z,6.03
2022-12-23T20:03:47.929Z,5.97
2022-12-23T20:08:59.757Z,5.99
2022-12-23T20:14:06.775Z,6.08
2022-12-23T20:19:11.788Z,6.10
2022-12-23T20:24:17.167Z,6.10
2022-12-23T20:29:21.304Z,6.06
2022-12-23T20:34:25.440Z,6.14
2022-12-23T20:39:29.723Z,6.18
2022-12-23T20:44:36.202Z,6.20
2022-12-23T20:49:41.416Z,6.24
2022-12-23T20:54:45.476Z,6.26
2022-12-23T20:59:50.402Z,6.28
2022-12-23T21:04:54.593Z,6.30
2022-12-23T21:09:59.311Z,6.30
2022-12-23T21:15:03.936Z,6.19
2022-12-23T21:20:09.668Z,6.09
2022-12-23T21:25:13.932Z,5.96
2022-12-23T21:30:18.804Z,5.88
2022-12-23T21:35:23.122Z,5.78
2022-12-23T21:40:27.743Z,5.73
2022-12-23T21:45:31.796Z,5.70
2022-12-23T21:50:36.117Z,5.61
2022-12-23T21:55:40.654Z,5.55
2022-12-23T22:00:47.159Z,5.51
2022-12-23T22:05:50.885Z,5.57
2022-12-23T22:10:54.800Z,5.61
2022-12-23T22:15:59.895Z,5.58
2022-12-23T22:21:15.182Z,5.53
2022-12-23T22:26:25.656Z,5.48
2022-12-23T22:31:40.707Z,5.37
2022-12-23T22:36:45.756Z,5.34
2022-12-23T22:41:51.927Z,5.28
2022-12-23T22:46:56.182Z,5.10
2022-12-23T22:52:00.879Z,5.00
2022-12-23T22:57:06.032Z,5.08
2022-12-23T23:02:09.630Z,5.13
2022-12-23T23:07:13.529Z,5.16
2022-12-23T23:12:17.372Z,5.16
2022-12-23T23:17:27.834Z,5.14
2022-12-23T23:22:31.568Z,5.15
2022-12-23T23:27:35.593Z,5.16
2022-12-23T23:32:39.136Z,5.10
2022-12-23T23:37:43.094Z,5.01
2022-12-23T23:42:46.982Z,4.87
2022-12-23T23:47:51.369Z,4.89
2022-12-23T23:52:55.135Z,4.99
2022-12-23T23:57:59.367Z,5.00
